sensor_id;sensor_type;location;lat;lon;timestamp;pressure;altitude;pressure_sealevel;temperature;humidity
41513;BME280;27244;59.940;30.280;2023-05-08T00:01:29;103013.47;;;23.17;21.63
41513;BME280;27244;59.940;30.280;2023-05-08T00:03:56;103017.47;;;23.16;21.68
41513;BME280;27244;59.940;30.280;2023-05-08T00:06:23;103020.28;;;23.16;21.81
41513;BME280;27244;59.940;30.280;2023-05-08T00:08:52;103011.03;;;23.15;21.36
41513;BME280;27244;59.940;30.280;2023-05-08T00:11:20;103004.16;;;23.13;21.44
41513;BME280;27244;59.940;30.280;2023-05-08T00:13:47;103017.47;;;23.16;21.56
41513;BME280;27244;59.940;30.280;2023-05-08T00:16:14;103012.25;;;23.14;21.50
41513;BME280;27244;59.940;30.280;2023-05-08T00:18:41;103011.84;;;23.16;21.35
41513;BME280;27244;59.940;30.280;2023-05-08T00:21:08;103015.88;;;23.15;21.34
41513;BME280;27244;59.940;30.280;2023-05-08T00:23:35;103017.88;;;23.14;21.36
41513;BME280;27244;59.940;30.280;2023-05-08T00:26:03;103024.31;;;23.15;21.44
41513;BME280;27244;59.940;30.280;2023-05-08T00:28:31;103019.09;;;23.17;21.66
41513;BME280;27244;59.940;30.280;2023-05-08T00:30:58;103008.94;;;23.09;21.37
41513;BME280;27244;59.940;30.280;2023-05-08T00:33:26;103008.94;;;23.09;21.74
41513;BME280;27244;59.940;30.280;2023-05-08T00:35:58;103017.91;;;23.18;21.38
41513;BME280;27244;59.940;30.280;2023-05-08T00:38:25;103023.50;;;23.14;21.23
41513;BME280;27244;59.940;30.280;2023-05-08T00:40:52;103017.88;;;23.14;21.18
41513;BME280;27244;59.940;30.280;2023-05-08T00:43:19;103020.69;;;23.14;21.21
41513;BME280;27244;59.940;30.280;2023-05-08T00:45:51;103024.31;;;23.15;21.25
41513;BME280;27244;59.940;30.280;2023-05-08T00:48:20;103023.88;;;23.13;20.89
41513;BME280;27244;59.940;30.280;2023-05-08T00:50:48;103024.69;;;23.13;21.09
41513;BME280;27244;59.940;30.280;2023-05-08T00:53:16;103024.69;;;23.13;20.97
41513;BME280;27244;59.940;30.280;2023-05-08T00:55:43;103017.03;;;23.10;20.91
41513;BME280;27244;59.940;30.280;2023-05-08T00:58:11;103029.13;;;23.14;21.16
41513;BME280;27244;59.940;30.280;2023-05-08T01:00:40;103021.06;;;23.13;20.92
41513;BME280;27244;59.940;30.280;2023-05-08T01:03:09;103035.59;;;23.15;20.84
41513;BME280;27244;59.940;30.280;2023-05-08T01:05:37;103030.31;;;23.13;21.03
41513;BME280;27244;59.940;30.280;2023-05-08T01:08:04;103022.66;;;23.10;20.67
41513;BME280;27244;59.940;30.280;2023-05-08T01:10:39;103031.50;;;23.12;20.77
41513;BME280;27244;59.940;30.280;2023-05-08T01:13:13;103028.72;;;23.16;20.71
41513;BME280;27244;59.940;30.280;2023-05-08T01:15:46;103031.56;;;23.16;20.69
41513;BME280;27244;59.940;30.280;2023-05-08T01:18:21;103034.00;;;23.17;20.77
41513;BME280;27244;59.940;30.280;2023-05-08T01:20:55;103032.00;;;23.18;20.80
41513;BME280;27244;59.940;30.280;2023-05-08T01:30:26;103040.47;;;23.21;20.83
41513;BME280;27244;59.940;30.280;2023-05-08T01:33:01;103031.56;;;23.16;20.93
41513;BME280;27244;59.940;30.280;2023-05-08T01:35:39;103031.91;;;23.11;21.09
41513;BME280;27244;59.940;30.280;2023-05-08T01:38:09;103035.13;;;23.13;20.86
41513;BME280;27244;59.940;30.280;2023-05-08T01:40:46;103036.78;;;23.14;20.87
41513;BME280;27244;59.940;30.280;2023-05-08T01:43:23;103033.13;;;23.13;20.87
41513;BME280;27244;59.940;30.280;2023-05-08T01:45:52;103036.72;;;23.10;20.88
41513;BME280;27244;59.940;30.280;2023-05-08T01:48:24;103040.78;;;23.13;20.85
41513;BME280;27244;59.940;30.280;2023-05-08T01:50:57;103037.53;;;23.11;20.62
41513;BME280;27244;59.940;30.280;2023-05-08T01:53:28;103031.09;;;23.10;20.92
41513;BME280;27244;59.940;30.280;2023-05-08T01:55:59;103040.34;;;23.11;20.75
41513;BME280;27244;59.940;30.280;2023-05-08T01:58:27;103042.38;;;23.10;20.83
41513;BME280;27244;59.940;30.280;2023-05-08T02:00:55;103036.72;;;23.10;20.69
41513;BME280;27244;59.940;30.280;2023-05-08T02:03:26;103048.41;;;23.12;20.75
41513;BME280;27244;59.940;30.280;2023-05-08T02:05:55;103045.19;;;23.10;20.91
41513;BME280;27244;59.940;30.280;2023-05-08T02:08:23;103034.66;;;23.03;20.85
41513;BME280;27244;59.940;30.280;2023-05-08T02:10:52;103045.53;;;23.09;20.91
41513;BME280;27244;59.940;30.280;2023-05-08T02:13:21;103040.34;;;23.11;20.92
41513;BME280;27244;59.940;30.280;2023-05-08T02:15:52;103046.00;;;23.11;21.09
41513;BME280;27244;59.940;30.280;2023-05-08T02:18:20;103052.44;;;23.11;20.86
41513;BME280;27244;59.940;30.280;2023-05-08T02:20:51;103054.81;;;23.09;20.94
41513;BME280;27244;59.940;30.280;2023-05-08T02:23:19;103035.47;;;23.04;20.80
41513;BME280;27244;59.940;30.280;2023-05-08T02:25:49;103046.81;;;23.11;20.92
41513;BME280;27244;59.940;30.280;2023-05-08T02:28:17;103048.38;;;23.09;20.91
41513;BME280;27244;59.940;30.280;2023-05-08T02:30:45;103051.63;;;23.11;20.84
41513;BME280;27244;59.940;30.280;2023-05-08T02:33:13;103047.59;;;23.12;20.79
41513;BME280;27244;59.940;30.280;2023-05-08T02:35:43;103049.63;;;23.11;20.96
41513;BME280;27244;59.940;30.280;2023-05-08T02:38:14;103046.41;;;23.13;20.74
41513;BME280;27244;59.940;30.280;2023-05-08T02:40:45;103049.22;;;23.13;21.00
41513;BME280;27244;59.940;30.280;2023-05-08T02:43:12;103047.38;;;23.27;20.99
41513;BME280;27244;59.940;30.280;2023-05-08T02:45:46;103048.88;;;23.18;20.94
41513;BME280;27244;59.940;30.280;2023-05-08T02:48:19;103041.91;;;23.08;20.94
41513;BME280;27244;59.940;30.280;2023-05-08T02:50:54;103050.84;;;23.14;20.90
41513;BME280;27244;59.940;30.280;2023-05-08T02:53:31;103053.25;;;23.15;20.93
41513;BME280;27244;59.940;30.280;2023-05-08T02:56:06;103055.66;;;23.13;20.90
41513;BME280;27244;59.940;30.280;2023-05-08T02:58:40;103057.28;;;23.14;20.93
41513;BME280;27244;59.940;30.280;2023-05-08T03:01:13;103050.84;;;23.14;20.98
41513;BME280;27244;59.940;30.280;2023-05-08T03:03:45;103050.41;;;23.12;20.87
41513;BME280;27244;59.940;30.280;2023-05-08T03:06:20;103052.47;;;23.15;20.93
41513;BME280;27244;59.940;30.280;2023-05-08T03:08:50;103045.19;;;23.10;20.85
41513;BME280;27244;59.940;30.280;2023-05-08T03:11:21;103054.03;;;23.12;20.74
41513;BME280;27244;59.940;30.280;2023-05-08T03:13:51;103056.84;;;23.12;20.87
41513;BME280;27244;59.940;30.280;2023-05-08T03:16:23;103050.84;;;23.14;20.77
41513;BME280;27244;59.940;30.280;2023-05-08T03:18:52;103049.22;;;23.13;20.87
41513;BME280;27244;59.940;30.280;2023-05-08T03:21:21;103044.00;;;23.11;20.83
41513;BME280;27244;59.940;30.280;2023-05-08T03:23:53;103043.59;;;23.13;20.65
41513;BME280;27244;59.940;30.280;2023-05-08T03:26:21;103044.78;;;23.12;20.83
41513;BME280;27244;59.940;30.280;2023-05-08T03:28:49;103046.00;;;23.11;20.77
41513;BME280;27244;59.940;30.280;2023-05-08T03:31:21;103042.41;;;23.14;20.68
41513;BME280;27244;59.940;30.280;2023-05-08T03:33:52;103053.66;;;23.14;20.83
41513;BME280;27244;59.940;30.280;2023-05-08T03:36:20;103057.66;;;23.13;20.83
41513;BME280;27244;59.940;30.280;2023-05-08T03:38:49;103049.63;;;23.11;20.72
41513;BME280;27244;59.940;30.280;2023-05-08T03:41:19;103057.28;;;23.14;20.61
41513;BME280;27244;59.940;30.280;2023-05-08T03:43:46;103044.78;;;23.12;20.70
41513;BME280;27244;59.940;30.280;2023-05-08T03:46:15;103049.22;;;23.13;20.70
41513;BME280;27244;59.940;30.280;2023-05-08T03:48:45;103043.19;;;23.11;20.68
41513;BME280;27244;59.940;30.280;2023-05-08T03:51:14;103050.84;;;23.14;20.83
41513;BME280;27244;59.940;30.280;2023-05-08T03:53:42;103051.22;;;23.12;20.75
41513;BME280;27244;59.940;30.280;2023-05-08T03:56:08;103041.97;;;23.12;20.72
41513;BME280;27244;59.940;30.280;2023-05-08T03:58:41;103047.63;;;23.15;20.70
41513;BME280;27244;59.940;30.280;2023-05-08T04:01:15;103037.13;;;23.12;20.68
41513;BME280;27244;59.940;30.280;2023-05-08T04:03:52;103038.81;;;23.17;20.60
41513;BME280;27244;59.940;30.280;2023-05-08T04:06:24;103048.03;;;23.14;20.60
41513;BME280;27244;59.940;30.280;2023-05-08T04:09:03;103046.44;;;23.16;20.64
41513;BME280;27244;59.940;30.280;2023-05-08T04:11:33;103049.19;;;23.09;20.60
41513;BME280;27244;59.940;30.280;2023-05-08T04:14:03;103050.19;;;23.27;20.76
41513;BME280;27244;59.940;30.280;2023-05-08T04:16:36;103052.06;;;23.16;20.83
41513;BME280;27244;59.940;30.280;2023-05-08T04:19:10;103054.47;;;23.14;20.71
41513;BME280;27244;59.940;30.280;2023-05-08T04:21:41;103049.22;;;23.13;20.54
41513;BME280;27244;59.940;30.280;2023-05-08T04:24:12;103059.66;;;23.12;20.75
41513;BME280;27244;59.940;30.280;2023-05-08T04:26:41;103047.19;;;23.10;20.75
41513;BME280;27244;59.940;30.280;2023-05-08T04:29:12;103056.47;;;23.14;20.85
41513;BME280;27244;59.940;30.280;2023-05-08T04:31:41;103057.25;;;23.11;21.26
41513;BME280;27244;59.940;30.280;2023-05-08T04:34:08;103051.63;;;23.11;20.93
41513;BME280;27244;59.940;30.280;2023-05-08T04:36:35;103058.44;;;23.10;20.92
41513;BME280;27244;59.940;30.280;2023-05-08T04:39:04;103058.03;;;23.08;20.91
41513;BME280;27244;59.940;30.280;2023-05-08T04:41:31;103055.63;;;23.10;20.91
41513;BME280;27244;59.940;30.280;2023-05-08T04:44:00;103057.25;;;23.11;20.78
41513;BME280;27244;59.940;30.280;2023-05-08T04:46:30;103062.47;;;23.12;20.81
41513;BME280;27244;59.940;30.280;2023-05-08T04:48:57;103057.25;;;23.11;21.33
41513;BME280;27244;59.940;30.280;2023-05-08T04:51:27;103053.22;;;23.12;20.99
41513;BME280;27244;59.940;30.280;2023-05-08T04:53:56;103052.44;;;23.11;20.87
41513;BME280;27244;59.940;30.280;2023-05-08T04:56:23;103052.44;;;23.11;20.87
41513;BME280;27244;59.940;30.280;2023-05-08T04:58:51;103060.06;;;23.11;20.77
41513;BME280;27244;59.940;30.280;2023-05-08T05:01:19;103063.69;;;23.11;20.85
41513;BME280;27244;59.940;30.280;2023-05-08T05:03:47;103056.44;;;23.10;20.69
41513;BME280;27244;59.940;30.280;2023-05-08T05:06:14;103063.69;;;23.11;20.79
41513;BME280;27244;59.940;30.280;2023-05-08T05:08:41;103059.63;;;23.09;21.03
41513;BME280;27244;59.940;30.280;2023-05-08T05:11:08;103064.47;;;23.12;20.81
41513;BME280;27244;59.940;30.280;2023-05-08T05:13:36;103064.47;;;23.12;20.66
41513;BME280;27244;59.940;30.280;2023-05-08T05:16:03;103064.47;;;23.12;20.62
41513;BME280;27244;59.940;30.280;2023-05-08T05:18:30;103050.31;;;23.04;20.81
41513;BME280;27244;59.940;30.280;2023-05-08T05:20:58;103060.47;;;23.13;20.77
41513;BME280;27244;59.940;30.280;2023-05-08T05:23:28;103062.88;;;23.11;20.63
41513;BME280;27244;59.940;30.280;2023-05-08T05:25:55;103057.22;;;23.07;20.71
41513;BME280;27244;59.940;30.280;2023-05-08T05:28:22;103064.88;;;23.10;20.84
41513;BME280;27244;59.940;30.280;2023-05-08T05:30:48;103067.28;;;23.12;20.86
41513;BME280;27244;59.940;30.280;2023-05-08T05:33:16;103070.94;;;23.12;20.97
41513;BME280;27244;59.940;30.280;2023-05-08T05:35:43;103067.28;;;23.12;20.74
41513;BME280;27244;59.940;30.280;2023-05-08T05:38:11;103070.09;;;23.12;20.75
41513;BME280;27244;59.940;30.280;2023-05-08T05:40:38;103064.88;;;23.10;20.81
41513;BME280;27244;59.940;30.280;2023-05-08T05:43:08;103070.09;;;23.12;20.90
41513;BME280;27244;59.940;30.280;2023-05-08T05:45:35;103068.09;;;23.12;20.85
41513;BME280;27244;59.940;30.280;2023-05-08T05:48:02;103065.28;;;23.12;20.75
41513;BME280;27244;59.940;30.280;2023-05-08T05:50:31;103079.00;;;23.14;20.81
41513;BME280;27244;59.940;30.280;2023-05-08T05:52:58;103079.38;;;23.12;20.80
41513;BME280;27244;59.940;30.280;2023-05-08T05:55:27;103073.38;;;23.14;20.81
41513;BME280;27244;59.940;30.280;2023-05-08T05:57:54;103075.38;;;23.13;20.89
41513;BME280;27244;59.940;30.280;2023-05-08T06:00:21;103078.56;;;23.12;20.93
41513;BME280;27244;59.940;30.280;2023-05-08T06:02:52;103081.81;;;23.14;20.90
41513;BME280;27244;59.940;30.280;2023-05-08T06:05:19;103075.38;;;23.13;20.80
41513;BME280;27244;59.940;30.280;2023-05-08T06:07:48;103084.63;;;23.14;20.85
41513;BME280;27244;59.940;30.280;2023-05-08T06:10:15;103068.50;;;23.11;20.88
41513;BME280;27244;59.940;30.280;2023-05-08T06:12:43;103073.75;;;23.12;20.96
41513;BME280;27244;59.940;30.280;2023-05-08T06:15:13;103079.41;;;23.16;20.99
41513;BME280;27244;59.940;30.280;2023-05-08T06:17:44;103068.50;;;23.11;20.97
41513;BME280;27244;59.940;30.280;2023-05-08T06:20:12;103068.94;;;23.13;20.93
41513;BME280;27244;59.940;30.280;2023-05-08T06:22:39;103073.38;;;23.14;20.80
41513;BME280;27244;59.940;30.280;2023-05-08T06:25:07;103069.75;;;23.13;20.95
41513;BME280;27244;59.940;30.280;2023-05-08T06:27:34;103073.38;;;23.14;20.78
41513;BME280;27244;59.940;30.280;2023-05-08T06:30:03;103077.41;;;23.16;20.86
41513;BME280;27244;59.940;30.280;2023-05-08T06:32:32;103072.97;;;23.15;20.93
41513;BME280;27244;59.940;30.280;2023-05-08T06:34:59;103075.00;;;23.15;20.90
41513;BME280;27244;59.940;30.280;2023-05-08T06:37:26;103079.03;;;23.17;20.98
41513;BME280;27244;59.940;30.280;2023-05-08T06:39:53;103066.94;;;23.13;20.79
41513;BME280;27244;59.940;30.280;2023-05-08T06:42:23;103071.78;;;23.16;20.73
41513;BME280;27244;59.940;30.280;2023-05-08T06:44:50;103075.41;;;23.17;21.05
41513;BME280;27244;59.940;30.280;2023-05-08T06:47:19;103077.03;;;23.18;20.85
41513;BME280;27244;59.940;30.280;2023-05-08T06:49:48;103074.59;;;23.16;20.86
41513;BME280;27244;59.940;30.280;2023-05-08T06:52:15;103077.41;;;23.16;20.83
41513;BME280;27244;59.940;30.280;2023-05-08T06:54:42;103081.41;;;23.15;20.90
41513;BME280;27244;59.940;30.280;2023-05-08T06:57:08;103081.03;;;23.17;20.78
41513;BME280;27244;59.940;30.280;2023-05-08T06:59:36;103082.22;;;23.16;20.82
41513;BME280;27244;59.940;30.280;2023-05-08T07:02:03;103072.56;;;23.13;20.80
41513;BME280;27244;59.940;30.280;2023-05-08T07:04:31;103079.00;;;23.14;21.48
41513;BME280;27244;59.940;30.280;2023-05-08T07:06:58;103079.81;;;23.14;21.09
41513;BME280;27244;59.940;30.280;2023-05-08T07:09:25;103081.00;;;23.13;21.08
41513;BME280;27244;59.940;30.280;2023-05-08T07:11:52;103079.00;;;23.14;20.92
41513;BME280;27244;59.940;30.280;2023-05-08T07:17:20;103071.38;;;23.14;20.80
41513;BME280;27244;59.940;30.280;2023-05-08T07:19:50;103077.03;;;23.18;20.92
41513;BME280;27244;59.940;30.280;2023-05-08T07:22:17;103073.38;;;23.14;21.04
41513;BME280;27244;59.940;30.280;2023-05-08T07:24:44;103070.16;;;23.15;21.15
41513;BME280;27244;59.940;30.280;2023-05-08T07:27:11;103076.59;;;23.16;20.97
41513;BME280;27244;59.940;30.280;2023-05-08T07:29:39;103077.38;;;23.13;21.05
41513;BME280;27244;59.940;30.280;2023-05-08T07:32:09;103075.00;;;23.15;21.25
41513;BME280;27244;59.940;30.280;2023-05-08T07:34:37;103072.19;;;23.15;21.08
41513;BME280;27244;59.940;30.280;2023-05-08T07:37:05;103066.94;;;23.13;21.06
41513;BME280;27244;59.940;30.280;2023-05-08T07:39:33;103073.38;;;23.14;21.16
41513;BME280;27244;59.940;30.280;2023-05-08T07:42:00;103071.75;;;23.13;21.55
41513;BME280;27244;59.940;30.280;2023-05-08T07:44:27;103066.13;;;23.13;21.53
41513;BME280;27244;59.940;30.280;2023-05-08T07:46:54;103077.38;;;23.13;21.46
41513;BME280;27244;59.940;30.280;2023-05-08T07:49:20;103071.75;;;23.13;21.30
41513;BME280;27244;59.940;30.280;2023-05-08T07:51:47;103078.59;;;23.15;21.56
41513;BME280;27244;59.940;30.280;2023-05-08T07:54:16;103075.78;;;23.15;21.42
41513;BME280;27244;59.940;30.280;2023-05-08T07:56:43;103069.75;;;23.13;21.53
41513;BME280;27244;59.940;30.280;2023-05-08T07:59:09;103077.41;;;23.16;21.47
41513;BME280;27244;59.940;30.280;2023-05-08T08:01:36;103080.22;;;23.16;21.41
41513;BME280;27244;59.940;30.280;2023-05-08T08:04:06;103074.22;;;23.18;21.40
41513;BME280;27244;59.940;30.280;2023-05-08T08:06:34;103066.88;;;23.10;21.96
41513;BME280;27244;59.940;30.280;2023-05-08T08:09:01;103074.22;;;23.18;21.61
41513;BME280;27244;59.940;30.280;2023-05-08T08:11:29;103087.53;;;23.21;21.53
41513;BME280;27244;59.940;30.280;2023-05-08T08:13:56;103079.84;;;23.18;21.39
41513;BME280;27244;59.940;30.280;2023-05-08T08:16:23;103081.91;;;23.21;21.45
41513;BME280;27244;59.940;30.280;2023-05-08T08:18:55;103082.75;;;23.25;21.46
41513;BME280;27244;59.940;30.280;2023-05-08T08:21:33;103084.38;;;23.26;21.45
41513;BME280;27244;59.940;30.280;2023-05-08T08:24:09;103085.53;;;23.21;21.48
41513;BME280;27244;59.940;30.280;2023-05-08T08:26:37;103083.13;;;23.23;21.64
41513;BME280;27244;59.940;30.280;2023-05-08T08:29:16;103067.41;;;23.19;21.75
41513;BME280;27244;59.940;30.280;2023-05-08T08:32:10;103082.38;;;23.30;22.02
41513;BME280;27244;59.940;30.280;2023-05-08T08:34:45;103069.75;;;23.13;22.23
41513;BME280;27244;59.940;30.280;2023-05-08T08:37:18;103064.41;;;23.04;22.34
41513;BME280;27244;59.940;30.280;2023-05-08T08:39:47;103084.38;;;23.26;22.56
41513;BME280;27244;59.940;30.280;2023-05-08T08:42:20;103049.13;;;23.05;22.70
41513;BME280;27244;59.940;30.280;2023-05-08T08:44:48;103074.63;;;23.20;22.93
41513;BME280;27244;59.940;30.280;2023-05-08T08:47:18;103039.44;;;22.99;22.92
41513;BME280;27244;59.940;30.280;2023-05-08T08:50:06;103062.19;;;23.21;23.02
41513;BME280;27244;59.940;30.280;2023-05-08T08:52:55;103092.13;;;23.36;22.99
41513;BME280;27244;59.940;30.280;2023-05-08T08:55:43;103045.50;;;23.05;23.23
41513;BME280;27244;59.940;30.280;2023-05-08T08:58:28;103088.91;;;23.37;23.26
41513;BME280;27244;59.940;30.280;2023-05-08T09:00:57;103075.22;;;23.36;23.51
41513;BME280;27244;59.940;30.280;2023-05-08T09:03:26;103068.78;;;23.35;23.44
41513;BME280;27244;59.940;30.280;2023-05-08T09:05:53;103059.16;;;23.36;23.42
41513;BME280;27244;59.940;30.280;2023-05-08T09:08:20;103062.75;;;23.37;23.63
41513;BME280;27244;59.940;30.280;2023-05-08T09:10:48;103070.00;;;23.38;23.67
41513;BME280;27244;59.940;30.280;2023-05-08T09:13:14;103067.63;;;23.40;23.81
41513;BME280;27244;59.940;30.280;2023-05-08T09:15:45;103067.63;;;23.40;23.84
41513;BME280;27244;59.940;30.280;2023-05-08T09:18:11;103067.69;;;23.43;23.88
41513;BME280;27244;59.940;30.280;2023-05-08T09:20:39;103072.50;;;23.43;24.01
41513;BME280;27244;59.940;30.280;2023-05-08T09:23:07;103062.44;;;23.42;24.20
41513;BME280;27244;59.940;30.280;2023-05-08T09:25:40;103071.75;;;23.46;24.14
41513;BME280;27244;59.940;30.280;2023-05-08T09:28:14;103061.66;;;23.45;24.09
41513;BME280;27244;59.940;30.280;2023-05-08T09:30:49;103074.19;;;23.47;24.08
41513;BME280;27244;59.940;30.280;2023-05-08T09:33:17;103062.44;;;23.42;24.27
41513;BME280;27244;59.940;30.280;2023-05-08T09:35:43;103063.19;;;23.39;24.34
41513;BME280;27244;59.940;30.280;2023-05-08T09:38:33;103066.13;;;23.49;24.18
41513;BME280;27244;59.940;30.280;2023-05-08T09:41:08;103062.50;;;23.49;24.30
41513;BME280;27244;59.940;30.280;2023-05-08T09:43:36;103061.25;;;23.43;24.34
41513;BME280;27244;59.940;30.280;2023-05-08T09:46:28;103050.88;;;23.50;24.16
41513;BME280;27244;59.940;30.280;2023-05-08T09:48:56;103053.66;;;23.47;24.36
41513;BME280;27244;59.940;30.280;2023-05-08T09:51:24;103045.59;;;23.49;24.24
41513;BME280;27244;59.940;30.280;2023-05-08T09:53:51;103051.66;;;23.47;24.42
41513;BME280;27244;59.940;30.280;2023-05-08T09:56:35;103055.75;;;23.57;24.66
41513;BME280;27244;59.940;30.280;2023-05-08T09:59:05;103059.69;;;23.49;24.99
41513;BME280;27244;59.940;30.280;2023-05-08T10:01:48;103047.25;;;23.53;25.17
41513;BME280;27244;59.940;30.280;2023-05-08T10:04:15;103044.00;;;23.51;25.21
41513;BME280;27244;59.940;30.280;2023-05-08T10:06:42;103046.03;;;23.51;25.46
41513;BME280;27244;59.940;30.280;2023-05-08T10:09:10;103036.81;;;23.54;25.47
41513;BME280;27244;59.940;30.280;2023-05-08T10:11:38;103043.25;;;23.55;25.29
41513;BME280;27244;59.940;30.280;2023-05-08T10:14:06;103042.84;;;23.56;25.43
41513;BME280;27244;59.940;30.280;2023-05-08T10:16:38;103036.44;;;23.59;25.30
41513;BME280;27244;59.940;30.280;2023-05-08T10:19:11;103037.69;;;23.62;25.26
41513;BME280;27244;59.940;30.280;2023-05-08T10:21:41;103030.44;;;23.61;25.51
41513;BME280;27244;59.940;30.280;2023-05-08T10:24:13;103028.44;;;23.65;25.30
41513;BME280;27244;59.940;30.280;2023-05-08T10:26:43;103031.25;;;23.61;25.41
41513;BME280;27244;59.940;30.280;2023-05-08T10:29:17;103021.63;;;23.66;25.52
41513;BME280;27244;59.940;30.280;2023-05-08T10:31:49;103015.97;;;23.62;25.36
41513;BME280;27244;59.940;30.280;2023-05-08T10:34:21;103025.22;;;23.66;25.65
41513;BME280;27244;59.940;30.280;2023-05-08T10:36:49;103018.41;;;23.67;26.63
41513;BME280;27244;59.940;30.280;2023-05-08T10:39:18;103007.91;;;23.64;25.93
41513;BME280;27244;59.940;30.280;2023-05-08T10:41:46;103015.59;;;23.67;25.85
41513;BME280;27244;59.940;30.280;2023-05-08T10:44:14;103011.94;;;23.67;25.91
41513;BME280;27244;59.940;30.280;2023-05-08T10:46:47;103013.19;;;23.69;25.89
41513;BME280;27244;59.940;30.280;2023-05-08T10:49:27;103007.97;;;23.71;25.72
41513;BME280;27244;59.940;30.280;2023-05-08T10:52:08;103007.56;;;23.69;25.68
41513;BME280;27244;59.940;30.280;2023-05-08T10:54:46;103001.94;;;23.69;25.78
41513;BME280;27244;59.940;30.280;2023-05-08T10:57:16;103003.59;;;23.81;25.35
41513;BME280;27244;59.940;30.280;2023-05-08T10:59:44;102982.88;;;23.56;25.72
41513;BME280;27244;59.940;30.280;2023-05-08T11:02:12;103006.28;;;23.63;25.71
41513;BME280;27244;59.940;30.280;2023-05-08T11:04:42;102994.19;;;23.63;25.88
41513;BME280;27244;59.940;30.280;2023-05-08T11:07:09;102995.81;;;23.60;25.76
41513;BME280;27244;59.940;30.280;2023-05-08T11:09:46;102995.84;;;23.67;25.58
41513;BME280;27244;59.940;30.280;2023-05-08T11:12:22;102991.41;;;23.66;25.65
41513;BME280;27244;59.940;30.280;2023-05-08T11:14:56;102978.50;;;23.62;25.82
41513;BME280;27244;59.940;30.280;2023-05-08T11:17:25;102983.34;;;23.61;25.82
41513;BME280;27244;59.940;30.280;2023-05-08T11:19:59;102982.56;;;23.64;25.74
41513;BME280;27244;59.940;30.280;2023-05-08T11:22:28;102984.97;;;23.62;25.82
41513;BME280;27244;59.940;30.280;2023-05-08T11:25:02;102980.53;;;23.61;25.92
41513;BME280;27244;59.940;30.280;2023-05-08T11:27:31;102983.75;;;23.63;25.82
41513;BME280;27244;59.940;30.280;2023-05-08T11:30:20;102985.44;;;23.71;25.65
41513;BME280;27244;59.940;30.280;2023-05-08T11:32:58;102981.38;;;23.65;25.84
41513;BME280;27244;59.940;30.280;2023-05-08T11:35:43;102978.13;;;23.67;25.84
41513;BME280;27244;59.940;30.280;2023-05-08T11:38:14;102974.88;;;23.61;25.94
41513;BME280;27244;59.940;30.280;2023-05-08T11:40:53;102972.47;;;23.63;25.93
41513;BME280;27244;59.940;30.280;2023-05-08T11:43:53;102983.78;;;23.70;25.95
41513;BME280;27244;59.940;30.280;2023-05-08T11:46:34;102976.53;;;23.66;25.98
41513;BME280;27244;59.940;30.280;2023-05-08T11:49:01;102966.84;;;23.63;26.19
41513;BME280;27244;59.940;30.280;2023-05-08T11:51:31;102966.84;;;23.63;26.06
41513;BME280;27244;59.940;30.280;2023-05-08T11:53:59;102966.84;;;23.63;26.24
41513;BME280;27244;59.940;30.280;2023-05-08T11:56:26;102968.06;;;23.62;26.20
41513;BME280;27244;59.940;30.280;2023-05-08T11:59:01;102961.19;;;23.63;26.42
41513;BME280;27244;59.940;30.280;2023-05-08T12:01:29;102965.25;;;23.62;26.34
41513;BME280;27244;59.940;30.280;2023-05-08T12:04:01;102962.81;;;23.64;26.35
41513;BME280;27244;59.940;30.280;2023-05-08T12:06:28;102974.19;;;23.78;25.79
41513;BME280;27244;59.940;30.280;2023-05-08T12:08:57;102958.78;;;23.62;26.40
41513;BME280;27244;59.940;30.280;2023-05-08T12:11:25;102959.97;;;23.61;26.52
41513;BME280;27244;59.940;30.280;2023-05-08T12:13:53;102957.97;;;23.61;26.70
41513;BME280;27244;59.940;30.280;2023-05-08T12:16:21;102951.91;;;23.59;26.40
41513;BME280;27244;59.940;30.280;2023-05-08T12:18:49;102950.69;;;23.57;26.29
41513;BME280;27244;59.940;30.280;2023-05-08T12:21:16;102953.91;;;23.59;26.01
41513;BME280;27244;59.940;30.280;2023-05-08T12:23:43;102952.69;;;23.56;25.86
41513;BME280;27244;59.940;30.280;2023-05-08T12:26:12;102952.31;;;23.58;25.48
41513;BME280;27244;59.940;30.280;2023-05-08T12:28:39;102953.88;;;23.55;26.30
41513;BME280;27244;59.940;30.280;2023-05-08T12:31:06;102945.44;;;23.55;25.88
41513;BME280;27244;59.940;30.280;2023-05-08T12:33:33;102951.47;;;23.53;25.53
41513;BME280;27244;59.940;30.280;2023-05-08T12:36:00;102945.84;;;23.53;25.45
41513;BME280;27244;59.940;30.280;2023-05-08T12:38:28;102945.84;;;23.53;26.27
41513;BME280;27244;59.940;30.280;2023-05-08T12:40:55;102945.03;;;23.53;25.97
41513;BME280;27244;59.940;30.280;2023-05-08T12:43:31;102939.44;;;23.60;25.29
41513;BME280;27244;59.940;30.280;2023-05-08T12:45:59;102932.53;;;23.50;26.87
41513;BME280;27244;59.940;30.280;2023-05-08T12:48:27;102928.91;;;23.50;27.45
41513;BME280;27244;59.940;30.280;2023-05-08T12:51:00;102920.50;;;23.53;26.34
41513;BME280;27244;59.940;30.280;2023-05-08T12:53:29;102924.47;;;23.49;26.15
41513;BME280;27244;59.940;30.280;2023-05-08T12:55:59;102914.00;;;23.49;25.88
41513;BME280;27244;59.940;30.280;2023-05-08T12:58:27;102912.00;;;23.50;25.96
41513;BME280;27244;59.940;30.280;2023-05-08T13:01:05;102917.25;;;23.55;26.06
41513;BME280;27244;59.940;30.280;2023-05-08T13:03:34;102920.06;;;23.51;26.14
41513;BME280;27244;59.940;30.280;2023-05-08T13:06:02;102914.84;;;23.53;26.34